Time;durP1;ratioP1;P1;durP2;ratioP2;P2;SDS_P1;SDS_P2;PMS_P1;PMS_P2;Temp;Humidity;BMP_temperature;BMP_pressure;BME280_temperature;BME280_humidity;BME280_pressure;Samples;Min_cycle;Max_cycle;Signal;HPM_P1;HPM_P2
2023/04/05 00:00:14;;;;;;;;;;;;;;;9.98;98.93;102316.97;5122246;28;19937;-52
2023/04/05 00:02:39;;;;;;;;;;;;;;;9.99;99.01;102312.47;5099408;28;19955;-51
2023/04/05 00:05:05;;;;;;;;;;;;;;;9.93;98.82;102310.44;5119820;28;19926;-52
2023/04/05 00:07:33;;;;;;;;;;;;;;;9.88;98.88;102306.38;5119313;28;19962;-50
2023/04/05 00:09:59;;;;;;;;;;;;;;;9.69;100.00;102309.22;5116939;28;19942;-51
2023/04/05 00:12:24;;;;;;;;;;;;;;;9.73;100.00;102302.59;5117234;28;19955;-51
2023/04/05 00:14:50;;;;;;;;;;;;;;;9.73;100.00;102300.75;5114542;28;19984;-50
2023/04/05 00:17:16;;;;;;;;;;;;;;;9.66;100.00;102299.69;5116927;28;19975;-53
2023/04/05 00:19:42;;;;;;;;;;;;;;;9.80;100.00;102308.97;5116818;28;19920;-53
2023/04/05 00:22:09;;;;;;;;;;;;;;;9.65;99.76;102307.84;5116940;28;19980;-52
2023/04/05 00:24:37;;;;;;;;;;;;;;;9.62;98.91;102292.97;5116844;28;19991;-51
2023/04/05 00:27:03;;;;;;;;;;;;;;;9.50;99.42;102291.50;5116603;28;19922;-52
2023/04/05 00:29:28;;;;;;;;;;;;;;;9.57;98.87;102289.91;5114320;28;19935;-51
2023/04/05 00:31:53;;;;;;;;;;;;;;;9.61;98.15;102291.28;5096817;28;19916;-53
2023/04/05 00:34:19;;;;;;;;;;;;;;;9.59;97.70;102288.75;5118709;28;19920;-52
2023/04/05 00:36:45;;;;;;;;;;;;;;;9.39;97.53;102292.56;5130567;28;19916;-52
2023/04/05 00:39:10;;;;;;;;;;;;;;;9.28;98.14;102297.16;5114489;28;19918;-53
2023/04/05 00:41:36;;;;;;;;;;;;;;;9.23;98.13;102285.25;5114382;28;19932;-59
2023/04/05 00:44:02;;;;;;;;;;;;;;;9.25;97.85;102286.78;5116483;28;19927;-50
2023/04/05 00:46:28;;;;;;;;;;;;;;;9.06;99.25;102282.38;5096751;28;19916;-51
2023/04/05 00:48:55;;;;;;;;;;;;;;;8.97;99.37;102289.47;5133553;28;19920;-51
2023/04/05 00:51:20;;;;;;;;;;;;;;;9.18;98.09;102280.34;5132283;28;19991;-53
2023/04/05 00:53:46;;;;;;;;;;;;;;;9.42;95.60;102282.44;5096951;28;19939;-55
2023/04/05 00:56:13;;;;;;;;;;;;;;;9.17;94.37;102289.34;5132362;28;19942;-50
2023/04/05 00:58:40;;;;;;;;;;;;;;;9.23;93.74;102285.25;5096601;28;19924;-52
2023/04/05 01:01:12;;;;;;;;;;;;;;;9.35;92.15;102286.72;5115160;28;19920;-50
2023/04/05 01:03:40;;;;;;;;;;;;;;;9.18;91.72;102286.53;5118472;28;19975;-53
2023/04/05 01:06:14;;;;;;;;;;;;;;;9.14;90.59;102278.97;5118779;28;19920;-53
2023/04/05 01:08:47;;;;;;;;;;;;;;;8.95;89.55;102272.75;5118519;28;19967;-49
2023/04/05 01:11:15;;;;;;;;;;;;;;;9.16;87.35;102271.66;5120834;28;19983;-52
2023/04/05 01:13:43;;;;;;;;;;;;;;;9.15;86.58;102270.81;5115924;28;19942;-52
2023/04/05 01:16:09;;;;;;;;;;;;;;;9.02;86.72;102276.53;5100851;28;19916;-54
2023/04/05 01:18:36;;;;;;;;;;;;;;;8.89;87.16;102273.38;5119660;28;19952;-49
2023/04/05 01:21:19;;;;;;;;;;;;;;;8.98;86.18;102280.47;5103344;28;19916;-48
2023/04/05 01:23:53;;;;;;;;;;;;;;;8.94;85.77;102267.59;5124249;28;19969;-50
2023/04/05 01:26:18;;;;;;;;;;;;;;;9.02;84.57;102270.34;5106059;28;19923;-53
2023/04/05 01:29:03;;;;;;;;;;;;;;;9.03;82.63;102267.53;5106777;28;20248;-54
2023/04/05 01:31:48;;;;;;;;;;;;;;;8.83;83.11;102265.97;5139322;27;19916;-49
2023/04/05 01:34:23;;;;;;;;;;;;;;;8.79;81.94;102261.91;5103244;28;19931;-52
2023/04/05 01:36:53;;;;;;;;;;;;;;;8.81;81.95;102259.94;5126375;28;19950;-50
2023/04/05 01:39:19;;;;;;;;;;;;;;;8.86;81.45;102255.00;5124222;28;19916;-55
2023/04/05 01:41:44;;;;;;;;;;;;;;;8.92;80.53;102256.22;5139821;27;19930;-51
2023/04/05 01:44:10;;;;;;;;;;;;;;;8.87;80.35;102257.50;5123548;28;19983;-53
2023/04/05 01:46:36;;;;;;;;;;;;;;;8.71;80.74;102258.13;5125549;28;19919;-56
2023/04/05 01:49:02;;;;;;;;;;;;;;;8.87;80.19;102259.34;5106553;28;19935;-51
2023/04/05 01:51:27;;;;;;;;;;;;;;;8.78;79.73;102249.56;5121389;28;19920;-51
2023/04/05 01:53:53;;;;;;;;;;;;;;;8.83;79.73;102249.97;5126307;28;19979;-52
2023/04/05 01:56:18;;;;;;;;;;;;;;;8.72;79.90;102253.66;5126486;28;19920;-52
2023/04/05 01:58:44;;;;;;;;;;;;;;;8.76;79.00;102252.38;5105840;28;19938;-53
2023/04/05 02:01:09;;;;;;;;;;;;;;;8.60;79.27;102247.69;5140203;27;19938;-53
2023/04/05 02:03:35;;;;;;;;;;;;;;;8.58;79.11;102245.16;5124799;28;19928;-52
2023/04/05 02:06:00;;;;;;;;;;;;;;;8.64;79.53;102238.41;5127311;28;19912;-51
2023/04/05 02:08:25;;;;;;;;;;;;;;;8.66;79.11;102244.41;5105125;28;19987;-53
2023/04/05 02:10:51;;;;;;;;;;;;;;;8.53;79.75;102234.09;5125518;28;19916;-53
2023/04/05 02:13:17;;;;;;;;;;;;;;;8.51;80.34;102237.88;5090706;28;19919;-52
2023/04/05 02:15:46;;;;;;;;;;;;;;;8.36;80.45;102237.50;5110547;28;19947;-54
2023/04/05 02:18:12;;;;;;;;;;;;;;;8.54;80.18;102230.44;5116979;28;19927;-50
2023/04/05 02:20:37;;;;;;;;;;;;;;;8.38;80.96;102231.03;5124677;28;19984;-55
2023/04/05 02:23:03;;;;;;;;;;;;;;;8.51;80.73;102235.22;5106173;28;19958;-51
2023/04/05 02:25:28;;;;;;;;;;;;;;;8.52;80.44;102234.22;5127002;28;19920;-53
2023/04/05 02:27:54;;;;;;;;;;;;;;;8.55;80.20;102231.28;5103088;28;19916;-53
2023/04/05 02:30:20;;;;;;;;;;;;;;;8.50;80.09;102228.22;5122032;28;19983;-54
2023/04/05 02:32:45;;;;;;;;;;;;;;;8.44;80.41;102232.28;5104201;28;19930;-49
2023/04/05 02:35:11;;;;;;;;;;;;;;;8.35;79.96;102231.34;5106684;28;19922;-53
2023/04/05 02:37:37;;;;;;;;;;;;;;;8.27;80.03;102223.22;5124811;28;19923;-50
2023/04/05 02:40:07;;;;;;;;;;;;;;;8.24;81.06;102223.50;5122938;28;19924;-54
2023/04/05 02:42:32;;;;;;;;;;;;;;;8.22;81.29;102226.34;5120543;28;19987;-50
2023/04/05 02:44:58;;;;;;;;;;;;;;;8.27;80.85;102218.75;5121404;28;19938;-52
2023/04/05 02:47:24;;;;;;;;;;;;;;;8.28;80.83;102220.41;5140036;27;19918;-50
2023/04/05 02:49:53;;;;;;;;;;;;;;;7.95;82.61;102224.44;5099728;28;19916;-53
2023/04/05 02:52:22;;;;;;;;;;;;;;;8.19;82.07;102218.63;5098692;28;19948;-51
2023/04/05 02:54:48;;;;;;;;;;;;;;;8.22;81.51;102214.81;5098773;28;19916;-50
2023/04/05 02:57:18;;;;;;;;;;;;;;;8.23;81.90;102213.84;5101339;28;19938;-49
2023/04/05 02:59:51;;;;;;;;;;;;;;;8.17;82.20;102208.13;5101660;28;20420;-49
2023/04/05 03:02:19;;;;;;;;;;;;;;;8.07;82.48;102212.63;5100843;28;19980;-50
2023/04/05 03:04:45;;;;;;;;;;;;;;;8.05;83.69;102203.94;5102135;28;19924;-53
2023/04/05 03:07:17;;;;;;;;;;;;;;;7.94;84.80;102202.28;5100382;28;19936;-51
2023/04/05 03:09:46;;;;;;;;;;;;;;;7.95;85.28;102201.28;5095244;28;20011;-52
2023/04/05 03:12:12;;;;;;;;;;;;;;;7.90;85.32;102198.22;5103739;28;19917;-50
2023/04/05 03:14:40;;;;;;;;;;;;;;;7.82;86.19;102198.13;5098961;28;19924;-47
2023/04/05 03:17:08;;;;;;;;;;;;;;;7.87;87.24;102195.84;5103343;28;19927;-52
2023/04/05 03:19:38;;;;;;;;;;;;;;;7.99;86.69;102204.53;5099030;28;19923;-50
2023/04/05 03:22:17;;;;;;;;;;;;;;;7.89;87.76;102200.06;5101603;28;19927;-51
2023/04/05 03:24:45;;;;;;;;;;;;;;;7.88;87.89;102195.72;5101036;28;19928;-53
2023/04/05 03:27:13;;;;;;;;;;;;;;;7.85;88.26;102198.69;5101167;28;19916;-51
2023/04/05 03:29:57;;;;;;;;;;;;;;;7.77;88.82;102192.38;5100439;28;19930;-52
2023/04/05 03:32:24;;;;;;;;;;;;;;;7.70;90.01;102189.44;5102029;28;19972;-50
2023/04/05 03:34:58;;;;;;;;;;;;;;;7.74;89.81;102194.34;5134247;27;19931;-52
2023/04/05 03:37:23;;;;;;;;;;;;;;;7.78;89.92;102197.56;5101671;28;19920;-53
2023/04/05 03:39:58;;;;;;;;;;;;;;;7.80;90.20;102192.91;5100925;28;19921;-49
2023/04/05 03:42:24;;;;;;;;;;;;;;;7.81;91.17;102193.78;5100541;28;19948;-49
2023/04/05 03:44:51;;;;;;;;;;;;;;;7.80;92.56;102195.59;5100578;28;19921;-51
2023/04/05 03:47:17;;;;;;;;;;;;;;;7.77;93.58;102185.22;5097146;28;19936;-54
2023/04/05 03:49:42;;;;;;;;;;;;;;;7.74;95.39;102190.84;5103103;28;19916;-53
2023/04/05 03:52:08;;;;;;;;;;;;;;;7.75;97.11;102187.19;5137191;27;19921;-50
2023/04/05 03:54:34;;;;;;;;;;;;;;;7.88;96.57;102185.06;5102367;28;19924;-48
2023/04/05 03:57:00;;;;;;;;;;;;;;;7.68;95.39;102180.78;5100383;28;19980;-54
2023/04/05 03:59:26;;;;;;;;;;;;;;;7.49;93.70;102182.47;5101307;28;19920;-50
2023/04/05 04:01:52;;;;;;;;;;;;;;;7.42;93.45;102189.34;5101774;28;19924;-52
2023/04/05 04:04:19;;;;;;;;;;;;;;;7.41;92.04;102185.00;5101339;28;19927;-50
2023/04/05 04:06:46;;;;;;;;;;;;;;;7.37;91.30;102180.94;5100640;28;19920;-52
2023/04/05 04:09:15;;;;;;;;;;;;;;;7.52;90.21;102186.69;5100798;28;19942;-52
2023/04/05 04:11:41;;;;;;;;;;;;;;;7.48;89.37;102188.78;5101750;28;19916;-50
2023/04/05 04:14:07;;;;;;;;;;;;;;;7.66;88.95;102188.06;5101586;28;19923;-52
2023/04/05 04:16:51;;;;;;;;;;;;;;;7.68;89.21;102186.09;5102371;28;19922;-53
2023/04/05 04:19:42;;;;;;;;;;;;;;;7.47;90.59;102185.25;5098807;28;19935;-52
2023/04/05 04:22:32;;;;;;;;;;;;;;;7.47;90.27;102179.13;5102024;28;20371;-49
2023/04/05 04:25:25;;;;;;;;;;;;;;;7.41;91.65;102182.34;5100273;28;19921;-49
2023/04/05 04:28:00;;;;;;;;;;;;;;;7.41;92.73;102174.38;5098305;28;19916;-50
2023/04/05 04:30:42;;;;;;;;;;;;;;;7.35;93.93;102180.22;5093207;28;19916;-52
2023/04/05 04:33:16;;;;;;;;;;;;;;;7.40;94.47;102175.34;5099527;28;19930;-50
2023/04/05 04:36:05;;;;;;;;;;;;;;;7.37;95.87;102171.13;5098156;28;19926;-50
2023/04/05 04:39:04;;;;;;;;;;;;;;;7.22;99.27;102181.38;5092896;28;19916;-51
2023/04/05 04:41:32;;;;;;;;;;;;;;;7.21;100.00;102178.84;5096954;28;19916;-49
2023/04/05 04:44:04;;;;;;;;;;;;;;;7.09;100.00;102175.47;5093296;28;19995;-51
2023/04/05 04:46:33;;;;;;;;;;;;;;;7.13;100.00;102168.88;5099369;28;19923;-55
2023/04/05 04:49:05;;;;;;;;;;;;;;;7.13;100.00;102172.41;5097880;28;19983;-50
2023/04/05 04:51:31;;;;;;;;;;;;;;;7.02;100.00;102170.72;5106462;28;19991;-48
2023/04/05 04:53:57;;;;;;;;;;;;;;;6.89;100.00;102172.78;5137002;27;19916;-52
2023/04/05 04:56:22;;;;;;;;;;;;;;;6.93;100.00;102176.03;5122220;28;19916;-55
2023/04/05 04:58:48;;;;;;;;;;;;;;;7.06;100.00;102178.41;5099769;28;19983;-51
2023/04/05 05:01:14;;;;;;;;;;;;;;;6.96;100.00;102176.59;5124060;28;19916;-51
2023/04/05 05:03:41;;;;;;;;;;;;;;;7.01;100.00;102171.69;5125544;28;19919;-53
2023/04/05 05:06:06;;;;;;;;;;;;;;;7.01;100.00;102176.16;5127200;28;19920;-55
2023/04/05 05:08:33;;;;;;;;;;;;;;;6.99;100.00;102171.00;5122927;28;19916;-52
2023/04/05 05:10:59;;;;;;;;;;;;;;;6.98;100.00;102177.28;5124221;28;19927;-51
2023/04/05 05:13:25;;;;;;;;;;;;;;;7.22;100.00;102177.84;5124233;28;19916;-53
2023/04/05 05:15:51;;;;;;;;;;;;;;;7.33;100.00;102175.06;5099607;28;19999;-51
2023/04/05 05:18:17;;;;;;;;;;;;;;;7.47;100.00;102176.44;5119406;28;19923;-54
2023/04/05 05:20:42;;;;;;;;;;;;;;;7.51;100.00;102174.34;5123778;28;19926;-48
2023/04/05 05:23:08;;;;;;;;;;;;;;;7.40;100.00;102172.69;5121450;28;20018;-49
2023/04/05 05:25:34;;;;;;;;;;;;;;;7.07;100.00;102164.13;5117573;28;19916;-50
2023/04/05 05:27:59;;;;;;;;;;;;;;;7.11;100.00;102170.84;5118606;28;19916;-50
2023/04/05 05:30:27;;;;;;;;;;;;;;;7.08;100.00;102164.00;5130952;28;19924;-47
2023/04/05 05:32:52;;;;;;;;;;;;;;;7.06;100.00;102165.13;5114162;28;19927;-52
2023/04/05 05:35:17;;;;;;;;;;;;;;;7.09;100.00;102164.84;5116445;28;19912;-52
2023/04/05 05:37:43;;;;;;;;;;;;;;;7.03;100.00;102164.41;5121175;28;20117;-48
2023/04/05 05:40:08;;;;;;;;;;;;;;;6.98;100.00;102163.16;5121140;28;19939;-52
2023/04/05 05:42:34;;;;;;;;;;;;;;;7.00;100.00;102166.50;5120398;28;19923;-53
2023/04/05 05:45:01;;;;;;;;;;;;;;;7.03;100.00;102166.22;5139649;27;19931;-50
2023/04/05 05:47:27;;;;;;;;;;;;;;;7.06;100.00;102159.78;5120632;28;19916;-51
2023/04/05 05:49:52;;;;;;;;;;;;;;;7.21;100.00;102163.72;5110584;28;19919;-51
2023/04/05 05:52:18;;;;;;;;;;;;;;;7.22;100.00;102169.88;5124338;28;19920;-49
2023/04/05 05:54:43;;;;;;;;;;;;;;;7.25;100.00;102170.44;5125594;28;19916;-52
2023/04/05 05:57:09;;;;;;;;;;;;;;;7.27;100.00;102170.31;5124586;28;19951;-48
2023/04/05 05:59:34;;;;;;;;;;;;;;;7.42;100.00;102176.03;5125931;28;19979;-50
2023/04/05 06:02:00;;;;;;;;;;;;;;;7.45;100.00;102175.75;5120311;28;19997;-53
2023/04/05 06:04:26;;;;;;;;;;;;;;;7.57;100.00;102163.94;5121650;28;19928;-51
2023/04/05 06:06:53;;;;;;;;;;;;;;;7.49;100.00;102177.16;5123024;28;19928;-54
2023/04/05 06:09:18;;;;;;;;;;;;;;;7.53;100.00;102175.88;5121884;28;19924;-53
2023/04/05 06:11:44;;;;;;;;;;;;;;;7.68;100.00;102180.78;5125214;28;19991;-51
2023/04/05 06:14:10;;;;;;;;;;;;;;;7.60;100.00;102182.31;5123187;28;20433;-51
2023/04/05 06:16:35;;;;;;;;;;;;;;;7.63;100.00;102177.69;5119595;28;19920;-50
2023/04/05 06:19:00;;;;;;;;;;;;;;;7.68;100.00;102180.78;5123006;28;19915;-51
2023/04/05 06:21:26;;;;;;;;;;;;;;;7.78;100.00;102183.41;5119722;28;19991;-54
2023/04/05 06:23:52;;;;;;;;;;;;;;;7.79;100.00;102177.09;5120266;28;19978;-50
2023/04/05 06:26:19;;;;;;;;;;;;;;;7.85;100.00;102180.03;5121735;28;19920;-52
2023/04/05 06:28:48;;;;;;;;;;;;;;;7.87;100.00;102182.53;5120701;28;19915;-54
2023/04/05 06:31:15;;;;;;;;;;;;;;;7.92;100.00;102182.94;5120245;28;19916;-50
2023/04/05 06:33:40;;;;;;;;;;;;;;;7.93;100.00;102176.63;5119200;28;19999;-52
2023/04/05 06:36:06;;;;;;;;;;;;;;;7.98;100.00;102178.88;5119762;28;19938;-52
2023/04/05 06:38:31;;;;;;;;;;;;;;;8.18;100.00;102179.63;5106753;28;19915;-51
2023/04/05 06:40:56;;;;;;;;;;;;;;;8.17;100.00;102181.47;5121192;28;19920;-51
2023/04/05 06:43:22;;;;;;;;;;;;;;;8.26;100.00;102174.41;5125544;28;19927;-53
2023/04/05 06:45:47;;;;;;;;;;;;;;;8.26;100.00;102179.75;5122399;28;19916;-51
2023/04/05 06:48:13;;;;;;;;;;;;;;;8.39;100.00;102179.41;5125534;28;19934;-51
2023/04/05 06:50:39;;;;;;;;;;;;;;;8.38;100.00;102180.41;5118781;28;19955;-50
2023/04/05 06:53:05;;;;;;;;;;;;;;;8.52;100.00;102172.91;5123950;28;19920;-52
2023/04/05 06:55:31;;;;;;;;;;;;;;;8.52;100.00;102173.75;5121076;28;19916;-52
2023/04/05 06:57:56;;;;;;;;;;;;;;;8.60;100.00;102183.69;5119612;28;19922;-51
2023/04/05 07:00:22;;;;;;;;;;;;;;;8.61;100.00;102182.69;5122618;28;19915;-52
2023/04/05 07:02:48;;;;;;;;;;;;;;;8.59;100.00;102176.66;5118718;28;19916;-52
2023/04/05 07:05:13;;;;;;;;;;;;;;;8.79;100.00;102181.91;5119038;28;19931;-55
2023/04/05 07:07:39;;;;;;;;;;;;;;;8.88;100.00;102181.81;5120929;28;19943;-53
2023/04/05 07:10:05;;;;;;;;;;;;;;;9.02;100.00;102185.81;5115389;28;19920;-51
2023/04/05 07:12:30;;;;;;;;;;;;;;;9.13;100.00;102187.41;5107821;28;19923;-51
2023/04/05 07:14:57;;;;;;;;;;;;;;;9.21;100.00;102188.47;5111178;28;19920;-52
2023/04/05 07:17:23;;;;;;;;;;;;;;;9.26;100.00;102180.81;5111374;28;19979;-52
2023/04/05 07:19:48;;;;;;;;;;;;;;;9.32;100.00;102185.53;5113802;28;19916;-53
2023/04/05 07:22:14;;;;;;;;;;;;;;;9.33;100.00;102177.38;5115779;28;19923;-55
2023/04/05 07:24:39;;;;;;;;;;;;;;;9.41;100.00;102181.97;5113030;28;19935;-53
2023/04/05 07:27:04;;;;;;;;;;;;;;;9.47;100.00;102183.19;5118588;28;19927;-50
2023/04/05 07:29:30;;;;;;;;;;;;;;;9.57;100.00;102175.06;5116394;28;20002;-56
2023/04/05 07:31:55;;;;;;;;;;;;;;;9.74;100.00;102174.19;5112445;28;19987;-52
2023/04/05 07:34:20;;;;;;;;;;;;;;;9.72;100.00;102180.69;5116678;28;19916;-53
2023/04/05 07:36:46;;;;;;;;;;;;;;;9.72;100.00;102176.16;5118319;28;19948;-50
2023/04/05 07:39:12;;;;;;;;;;;;;;;9.83;100.00;102185.75;5120185;28;19995;-50
2023/04/05 07:41:37;;;;;;;;;;;;;;;9.84;100.00;102181.28;5118263;28;19916;-50
2023/04/05 07:44:03;;;;;;;;;;;;;;;9.83;100.00;102176.91;5117109;28;19920;-51
2023/04/05 07:46:28;;;;;;;;;;;;;;;9.89;100.00;102177.09;5118312;28;19938;-49
2023/04/05 07:48:54;;;;;;;;;;;;;;;10.10;100.00;102178.56;5118106;28;19922;-52
2023/04/05 07:51:20;;;;;;;;;;;;;;;10.17;100.00;102184.97;5116998;28;19926;-51
2023/04/05 07:53:45;;;;;;;;;;;;;;;10.20;99.38;102178.44;5119012;28;19924;-52
2023/04/05 07:56:13;;;;;;;;;;;;;;;10.32;98.63;102176.31;5113118;28;20076;-52
2023/04/05 07:58:40;;;;;;;;;;;;;;;10.49;97.06;102179.09;5118951;28;19924;-50
2023/04/05 08:01:05;;;;;;;;;;;;;;;10.60;96.35;102184.97;5119753;28;19928;-54
2023/04/05 08:03:33;;;;;;;;;;;;;;;10.67;96.36;102185.19;5117360;28;19946;-49
2023/04/05 08:06:07;;;;;;;;;;;;;;;10.75;95.91;102182.50;5116491;28;19954;-50
2023/04/05 08:08:33;;;;;;;;;;;;;;;10.86;96.23;102183.22;5116799;28;19917;-55
2023/04/05 08:11:01;;;;;;;;;;;;;;;11.04;95.90;102183.91;5120904;28;19995;-50
2023/04/05 08:13:27;;;;;;;;;;;;;;;11.07;92.43;102187.25;5123179;28;19982;-53
2023/04/05 08:15:55;;;;;;;;;;;;;;;10.82;88.58;102176.50;5118724;28;19916;-50
2023/04/05 08:18:21;;;;;;;;;;;;;;;10.91;87.92;102180.88;5117726;28;19916;-52
2023/04/05 08:20:50;;;;;;;;;;;;;;;11.23;86.35;102189.94;5119828;28;19931;-48
2023/04/05 08:23:15;;;;;;;;;;;;;;;11.34;84.37;102191.47;5117299;28;19950;-54
2023/04/05 08:25:41;;;;;;;;;;;;;;;11.05;82.60;102188.25;5115138;28;19919;-51
2023/04/05 08:28:06;;;;;;;;;;;;;;;11.22;81.71;102193.63;5121758;28;19923;-53
2023/04/05 08:30:32;;;;;;;;;;;;;;;11.39;81.30;102186.44;5119856;28;19946;-52
2023/04/05 08:32:57;;;;;;;;;;;;;;;11.40;78.94;102188.09;5118429;28;19920;-54
2023/04/05 08:35:23;;;;;;;;;;;;;;;11.54;78.42;102183.94;5118626;28;19916;-50
2023/04/05 08:37:48;;;;;;;;;;;;;;;11.88;76.27;102188.22;5121137;28;19924;-53
2023/04/05 08:40:13;;;;;;;;;;;;;;;12.00;76.63;102190.56;5119399;28;19971;-53
2023/04/05 08:42:45;;;;;;;;;;;;;;;11.94;75.65;102186.72;5118983;28;19996;-54
2023/04/05 08:45:13;;;;;;;;;;;;;;;11.96;74.10;102183.84;5118321;28;20002;-55
2023/04/05 08:47:40;;;;;;;;;;;;;;;11.94;74.37;102186.72;5115811;28;19916;-54
2023/04/05 08:50:08;;;;;;;;;;;;;;;12.28;73.12;102185.63;5120146;28;19915;-50
2023/04/05 08:52:37;;;;;;;;;;;;;;;12.37;70.41;102180.25;5118494;28;19946;-52
2023/04/05 08:55:03;;;;;;;;;;;;;;;12.62;69.22;102184.47;5119313;28;19927;-55
2023/04/05 08:57:30;;;;;;;;;;;;;;;12.83;66.71;102183.00;5115467;28;19942;-53
2023/04/05 08:59:57;;;;;;;;;;;;;;;13.14;65.31;102181.25;5114890;28;19923;-54
2023/04/05 09:02:23;;;;;;;;;;;;;;;13.32;64.56;102187.16;5120696;28;19915;-53
2023/04/05 09:04:50;;;;;;;;;;;;;;;13.70;64.15;102177.47;5117761;28;19919;-56
2023/04/05 09:07:16;;;;;;;;;;;;;;;14.05;63.20;102183.13;5115933;28;19927;-51
2023/04/05 09:09:45;;;;;;;;;;;;;;;14.66;62.81;102175.84;5115399;28;19993;-53
2023/04/05 09:12:10;;;;;;;;;;;;;;;15.09;59.42;102178.56;5115945;28;19915;-54
2023/04/05 09:14:37;;;;;;;;;;;;;;;15.62;56.10;102183.56;5115273;28;19924;-52
2023/04/05 09:17:03;;;;;;;;;;;;;;;16.19;54.45;102183.53;5118624;28;19947;-52
2023/04/05 09:19:28;;;;;;;;;;;;;;;16.94;51.98;102184.59;5118685;28;19927;-53
2023/04/05 09:22:04;;;;;;;;;;;;;;;17.29;49.75;102186.34;5118760;28;19916;-52
2023/04/05 09:24:35;;;;;;;;;;;;;;;17.87;49.20;102185.66;5096701;28;20226;-50
2023/04/05 09:27:05;;;;;;;;;;;;;;;18.43;46.71;102188.81;5119918;28;19919;-50
2023/04/05 09:29:31;;;;;;;;;;;;;;;18.55;45.14;102186.25;5119043;28;19916;-54
2023/04/05 09:31:59;;;;;;;;;;;;;;;19.17;41.20;102185.69;5136328;28;19928;-56
2023/04/05 09:34:25;;;;;;;;;;;;;;;19.60;40.18;102186.78;5098367;28;19923;-54
2023/04/05 09:36:51;;;;;;;;;;;;;;;19.91;37.79;102195.91;5119205;28;19916;-56
2023/04/05 09:39:21;;;;;;;;;;;;;;;20.59;36.01;102195.09;5125168;28;19916;-53
2023/04/05 09:42:07;;;;;;;;;;;;;;;20.90;36.43;102185.06;5121909;28;19941;-54
2023/04/05 09:44:50;;;;;;;;;;;;;;;21.77;34.37;102191.78;5105535;28;19927;-57
2023/04/05 09:47:17;;;;;;;;;;;;;;;22.58;32.43;102192.06;5119615;28;19946;-50
2023/04/05 09:49:42;;;;;;;;;;;;;;;22.60;32.49;102184.47;5124353;28;19923;-52
2023/04/05 09:52:18;;;;;;;;;;;;;;;22.97;31.23;102181.31;5094058;28;19921;-54
2023/04/05 09:54:43;;;;;;;;;;;;;;;23.55;31.25;102191.25;5082297;28;19971;-56
2023/04/05 09:57:10;;;;;;;;;;;;;;;23.52;31.59;102184.38;5085140;28;19939;-55
2023/04/05 09:59:35;;;;;;;;;;;;;;;23.78;31.36;102188.31;5086136;28;20355;-56
2023/04/05 10:02:02;;;;;;;;;;;;;;;23.83;30.91;102179.38;5089578;28;19930;-54
2023/04/05 10:04:37;;;;;;;;;;;;;;;24.16;30.08;102183.06;5082797;28;19931;-55
2023/04/05 10:07:02;;;;;;;;;;;;;;;24.37;29.89;102182.50;5092365;28;19916;-56
2023/04/05 10:09:29;;;;;;;;;;;;;;;24.72;29.15;102189.41;5084841;28;19923;-57
2023/04/05 10:11:55;;;;;;;;;;;;;;;24.57;28.88;102181.88;5083393;28;19916;-54
2023/04/05 10:14:21;;;;;;;;;;;;;;;25.28;28.68;102163.63;5089097;28;19927;-54
2023/04/05 10:16:52;;;;;;;;;;;;;;;25.49;27.87;102172.81;5087593;28;19979;-55
2023/04/05 10:19:27;;;;;;;;;;;;;;;25.56;27.89;102165.19;5085379;28;19916;-55
2023/04/05 10:21:53;;;;;;;;;;;;;;;25.83;27.30;102158.75;5085308;28;19917;-56
2023/04/05 10:24:39;;;;;;;;;;;;;;;25.95;27.31;102157.69;5083721;28;19951;-56
2023/04/05 10:27:11;;;;;;;;;;;;;;;25.85;27.17;102156.59;5081703;28;19916;-53
2023/04/05 10:29:42;;;;;;;;;;;;;;;26.33;27.03;102158.41;5086918;28;19921;-55
2023/04/05 10:32:17;;;;;;;;;;;;;;;26.26;26.99;102157.81;5090279;28;19925;-55
2023/04/05 10:34:50;;;;;;;;;;;;;;;26.49;26.63;102156.50;5087082;28;19922;-57
2023/04/05 10:37:23;;;;;;;;;;;;;;;26.59;26.10;102155.69;5084902;28;19923;-56
2023/04/05 10:39:49;;;;;;;;;;;;;;;26.76;26.12;102153.53;5084287;28;19917;-55
2023/04/05 10:42:15;;;;;;;;;;;;;;;26.83;25.53;102152.41;5087597;28;19920;-56
2023/04/05 10:44:42;;;;;;;;;;;;;;;26.82;25.93;102150.78;5084930;28;19959;-56
2023/04/05 10:47:09;;;;;;;;;;;;;;;27.29;24.99;102149.66;5082249;28;19916;-54
2023/04/05 10:49:37;;;;;;;;;;;;;;;27.53;24.89;102154.56;5082109;28;20522;-57
2023/04/05 10:52:03;;;;;;;;;;;;;;;26.95;25.53;102150.25;5107246;28;19904;-53
2023/04/05 10:54:32;;;;;;;;;;;;;;;27.17;24.62;102146.38;5119634;28;19927;-54
2023/04/05 10:57:00;;;;;;;;;;;;;;;27.66;24.54;102138.59;5122234;28;19916;-55
2023/04/05 10:59:26;;;;;;;;;;;;;;;27.76;24.35;102142.09;5119516;28;19916;-56
2023/04/05 11:01:52;;;;;;;;;;;;;;;28.18;23.62;102142.78;5116583;28;19916;-56
2023/04/05 11:04:18;;;;;;;;;;;;;;;27.91;23.54;102138.50;5116538;28;19920;-56
2023/04/05 11:06:46;;;;;;;;;;;;;;;28.42;23.60;102135.72;5117818;28;19922;-55
2023/04/05 11:09:15;;;;;;;;;;;;;;;29.09;23.15;102134.38;5120141;28;19927;-57
2023/04/05 11:11:42;;;;;;;;;;;;;;;28.98;23.08;102137.22;5120155;28;19946;-57
2023/04/05 11:14:40;;;;;;;;;;;;;;;29.34;22.39;102134.13;5118779;28;19979;-56
2023/04/05 11:17:22;;;;;;;;;;;;;;;28.61;23.26;102130.38;5101420;28;19944;-56
2023/04/05 11:19:51;;;;;;;;;;;;;;;29.19;22.54;102131.50;5117674;28;19917;-52
2023/04/05 11:22:27;;;;;;;;;;;;;;;29.46;22.34;102130.16;5123062;28;20013;-57
2023/04/05 11:24:56;;;;;;;;;;;;;;;30.10;21.79;102132.66;5123587;28;19919;-55
2023/04/05 11:27:26;;;;;;;;;;;;;;;30.38;21.68;102124.50;5119710;28;19916;-56
2023/04/05 11:29:53;;;;;;;;;;;;;;;30.82;21.43;102121.63;5121404;28;19937;-58
2023/04/05 11:32:19;;;;;;;;;;;;;;;30.68;21.75;102116.06;5121874;28;19922;-54
2023/04/05 11:34:56;;;;;;;;;;;;;;;31.02;21.13;102121.25;5119662;28;19943;-56
2023/04/05 11:37:21;;;;;;;;;;;;;;;31.22;20.48;102119.25;5115769;28;19916;-56
2023/04/05 11:39:46;;;;;;;;;;;;;;;32.04;20.18;102119.47;5119877;28;19927;-53
2023/04/05 11:42:15;;;;;;;;;;;;;;;32.24;19.96;102117.38;5119699;28;19948;-56
2023/04/05 11:44:40;;;;;;;;;;;;;;;32.73;19.14;102117.53;5121231;28;19924;-57
2023/04/05 11:47:06;;;;;;;;;;;;;;;32.53;19.13;102112.56;5117650;28;19943;-56
2023/04/05 11:49:32;;;;;;;;;;;;;;;31.98;19.84;102106.91;5123889;28;19916;-57
2023/04/05 11:51:57;;;;;;;;;;;;;;;32.56;19.20;102100.84;5119600;28;19954;-55
2023/04/05 11:54:29;;;;;;;;;;;;;;;31.93;19.61;102100.66;5118611;28;19938;-57
2023/04/05 11:56:55;;;;;;;;;;;;;;;32.78;18.67;102101.94;5115138;28;19922;-56
2023/04/05 11:59:26;;;;;;;;;;;;;;;32.85;18.62;102099.53;5117089;28;19923;-55
2023/04/05 12:01:56;;;;;;;;;;;;;;;31.91;19.11;102081.59;5116922;28;19916;-57
2023/04/05 12:04:22;;;;;;;;;;;;;;;32.24;19.39;102089.69;5121644;28;19987;-56
2023/04/05 12:06:48;;;;;;;;;;;;;;;31.84;19.07;102087.59;5119323;28;19915;-58
2023/04/05 12:09:14;;;;;;;;;;;;;;;32.48;18.25;102088.59;5117888;28;19916;-58
2023/04/05 12:11:40;;;;;;;;;;;;;;;32.65;18.29;102084.28;5117895;28;19922;-58
2023/04/05 12:14:05;;;;;;;;;;;;;;;33.17;18.09;102081.78;5118573;28;19920;-57
2023/04/05 12:16:30;;;;;;;;;;;;;;;33.09;18.01;102081.72;5119402;28;19916;-57
2023/04/05 12:18:57;;;;;;;;;;;;;;;32.50;18.69;102074.41;5122611;28;19990;-58
2023/04/05 12:21:22;;;;;;;;;;;;;;;33.19;18.88;102078.66;5116039;28;19990;-60
2023/04/05 12:23:49;;;;;;;;;;;;;;;32.86;18.47;102076.22;5115955;28;19912;-59
2023/04/05 12:26:15;;;;;;;;;;;;;;;33.26;18.82;102079.03;5115792;28;19916;-61
2023/04/05 12:28:57;;;;;;;;;;;;;;;33.77;18.08;102070.31;5120507;28;19916;-61
2023/04/05 12:31:42;;;;;;;;;;;;;;;33.64;18.14;102071.28;5115257;28;19916;-60
2023/04/05 12:34:08;;;;;;;;;;;;;;;34.01;18.18;102071.81;5113665;28;19920;-61
2023/04/05 12:36:34;;;;;;;;;;;;;;;33.99;18.27;102071.34;5117834;28;19916;-60
2023/04/05 12:39:00;;;;;;;;;;;;;;;34.22;17.67;102063.63;5114381;28;19920;-60
2023/04/05 12:41:26;;;;;;;;;;;;;;;34.02;17.86;102060.41;5114557;28;20000;-58
2023/04/05 12:43:57;;;;;;;;;;;;;;;34.24;18.04;102058.56;5116636;28;19928;-56